Time;durP1;ratioP1;P1;durP2;ratioP2;P2;SDS_P1;SDS_P2;PMS_P1;PMS_P2;Temp;Humidity;BMP_temperature;BMP_pressure;BME280_temperature;BME280_humidity;BME280_pressure;Samples;Min_cycle;Max_cycle;Signal;HPM_P1;HPM_P2
2021/11/14 00:02:10;;;;;;;108.30;52.10;;;;;;;4.51;57.94;99256.90;103003;1319;111536;-74
2021/11/14 00:04:48;;;;;;;101.10;53.00;;;;;;;4.55;57.85;99259.36;103041;1322;96684;-74
2021/11/14 00:07:18;;;;;;;108.70;54.80;;;;;;;4.58;58.01;99258.32;102896;1319;107864;-74
2021/11/14 00:09:46;;;;;;;101.70;52.40;;;;;;;4.61;58.11;99266.07;102941;1319;97987;-75
2021/11/14 00:12:14;;;;;;;104.70;51.50;;;;;;;4.64;57.80;99262.80;102776;1320;96656;-75
2021/11/14 00:14:42;;;;;;;105.10;52.00;;;;;;;4.66;58.03;99268.86;102888;1318;111499;-74
2021/11/14 00:17:10;;;;;;;100.60;53.50;;;;;;;4.69;58.26;99269.75;102962;1319;97865;-76
2021/11/14 00:19:38;;;;;;;100.10;51.10;;;;;;;4.72;58.30;99273.48;103035;1319;107976;-75
2021/11/14 00:22:06;;;;;;;102.30;51.10;;;;;;;4.73;58.27;99267.69;102878;1319;97886;-75
2021/11/14 00:24:34;;;;;;;101.40;52.50;;;;;;;4.73;58.46;99268.55;102991;1319;97880;-74
2021/11/14 00:27:02;;;;;;;97.50;51.10;;;;;;;4.74;58.38;99270.08;102948;1319;111292;-74
2021/11/14 00:29:29;;;;;;;98.40;47.20;;;;;;;4.75;58.40;99271.98;103090;1319;97903;-74
2021/11/14 00:31:57;;;;;;;95.00;48.10;;;;;;;4.73;58.45;99269.41;103062;1319;107775;-74
2021/11/14 00:34:25;;;;;;;90.50;47.70;;;;;;;4.71;58.52;99266.66;102876;1326;97941;-74
2021/11/14 00:36:54;;;;;;;96.50;50.20;;;;;;;4.71;58.57;99276.54;103087;1319;97598;-74
2021/11/14 00:39:24;;;;;;;96.30;49.90;;;;;;;4.70;58.58;99279.05;102921;1318;113686;-73
2021/11/14 00:41:54;;;;;;;102.20;49.10;;;;;;;4.68;58.69;99275.45;102968;1323;96015;-73
2021/11/14 00:44:22;;;;;;;95.80;48.00;;;;;;;4.67;58.78;99271.66;102970;1322;107846;-73
2021/11/14 00:46:54;;;;;;;96.70;47.60;;;;;;;4.65;58.72;99278.23;102984;1319;97980;-76
2021/11/14 00:49:22;;;;;;;92.60;48.40;;;;;;;4.62;58.71;99276.40;103041;1320;95252;-76
2021/11/14 00:51:50;;;;;;;94.90;47.60;;;;;;;4.61;58.91;99278.39;103064;1319;111461;-76
2021/11/14 00:54:18;;;;;;;93.90;47.10;;;;;;;4.60;58.96;99275.63;103134;1322;97845;-76
2021/11/14 00:56:46;;;;;;;90.90;46.40;;;;;;;4.60;58.86;99277.73;102952;1318;107786;-75
2021/11/14 00:59:14;;;;;;;88.50;46.80;;;;;;;4.62;58.85;99283.45;103123;1322;97908;-75
2021/11/14 01:01:42;;;;;;;92.10;45.70;;;;;;;4.62;58.89;99285.20;103085;1319;97889;-75
2021/11/14 01:04:13;;;;;;;96.00;47.20;;;;;;;4.61;59.08;99287.34;102981;1318;111574;-75
2021/11/14 01:06:41;;;;;;;92.20;46.90;;;;;;;4.59;58.94;99285.16;102953;1319;97959;-75
2021/11/14 01:09:09;;;;;;;99.50;49.00;;;;;;;4.54;59.28;99282.06;102945;1319;107841;-76
2021/11/14 01:11:37;;;;;;;95.30;47.30;;;;;;;4.52;59.10;99281.79;103086;1319;97906;-74
2021/11/14 01:14:05;;;;;;;95.90;47.70;;;;;;;4.52;59.36;99283.02;102912;1324;97905;-76
2021/11/14 01:16:33;;;;;;;107.20;49.90;;;;;;;4.53;59.41;99283.29;102976;1318;111495;-75
2021/11/14 01:19:01;;;;;;;97.20;46.90;;;;;;;4.54;59.45;99284.67;103015;1320;98006;-75
2021/11/14 01:21:31;;;;;;;106.40;51.50;;;;;;;4.53;59.31;99284.89;103018;1319;107914;-75
2021/11/14 01:24:00;;;;;;;109.40;51.80;;;;;;;4.51;59.58;99286.40;103002;1319;97981;-74
2021/11/14 01:26:29;;;;;;;101.90;49.30;;;;;;;4.49;59.34;99288.24;102881;1325;95971;-75
2021/11/14 01:28:59;;;;;;;103.20;49.10;;;;;;;4.47;59.43;99291.11;102985;1319;111973;-74
2021/11/14 01:31:28;;;;;;;119.20;50.00;;;;;;;4.45;59.63;99296.12;102881;1319;98140;-74
2021/11/14 01:33:58;;;;;;;113.30;49.70;;;;;;;4.45;59.89;99299.66;103041;1319;107896;-75
2021/11/14 01:36:32;;;;;;;115.10;52.20;;;;;;;4.46;59.96;99302.92;102962;1319;98034;-75
2021/11/14 01:39:07;;;;;;;116.50;55.10;;;;;;;4.46;60.00;99302.90;103020;1315;96003;-74
2021/11/14 01:41:38;;;;;;;115.30;53.30;;;;;;;4.46;60.09;99301.52;102920;1325;111615;-74
2021/11/14 01:44:08;;;;;;;119.70;51.70;;;;;;;4.47;59.97;99302.88;102971;1320;98747;-73
2021/11/14 01:46:38;;;;;;;118.00;52.00;;;;;;;4.50;60.20;99303.14;102904;1319;109565;-75
2021/11/14 01:49:09;;;;;;;121.50;51.80;;;;;;;4.52;60.09;99299.52;102960;1319;98008;-75
2021/11/14 01:51:58;;;;;;;130.70;52.70;;;;;;;4.51;60.19;99301.52;103081;1319;97895;-75
2021/11/14 01:54:27;;;;;;;137.20;58.30;;;;;;;4.49;60.01;99302.80;102960;1319;111728;-73
2021/11/14 01:56:55;;;;;;;128.80;56.00;;;;;;;4.47;60.33;99302.02;103055;1319;97900;-73
2021/11/14 01:59:23;;;;;;;136.40;56.80;;;;;;;4.47;60.43;99297.98;102959;1319;107958;-73
2021/11/14 02:01:52;;;;;;;128.20;53.30;;;;;;;4.46;60.33;99301.17;102980;1319;98024;-73
2021/11/14 02:04:23;;;;;;;132.50;57.20;;;;;;;4.44;60.05;99304.62;102967;1319;98496;-74
2021/11/14 02:06:51;;;;;;;128.10;56.10;;;;;;;4.42;60.49;99307.84;102930;1322;110530;-76
2021/11/14 02:09:18;;;;;;;143.90;58.20;;;;;;;4.44;60.40;99308.31;103035;1325;97975;-75
2021/11/14 02:11:46;;;;;;;147.00;60.90;;;;;;;4.46;60.82;99309.27;103007;1320;107824;-75
2021/11/14 02:14:14;;;;;;;143.00;59.40;;;;;;;4.47;60.48;99309.75;103015;1322;97643;-76
2021/11/14 02:16:42;;;;;;;134.30;56.30;;;;;;;4.47;60.67;99310.44;103048;1319;97966;-76
2021/11/14 02:19:10;;;;;;;140.60;55.20;;;;;;;4.47;60.64;99315.73;103003;1318;111494;-76
2021/11/14 02:21:39;;;;;;;136.80;55.40;;;;;;;4.47;60.44;99318.89;102914;1318;97859;-76
2021/11/14 02:24:07;;;;;;;141.60;56.40;;;;;;;4.46;60.81;99318.59;102956;1318;107927;-76
2021/11/14 02:26:35;;;;;;;151.30;60.20;;;;;;;4.46;61.02;99320.31;103020;1318;97908;-77
2021/11/14 02:29:04;;;;;;;149.40;60.50;;;;;;;4.46;61.03;99322.06;102974;1319;97880;-77
2021/11/14 02:31:32;;;;;;;156.90;62.50;;;;;;;4.46;60.94;99320.31;103012;1318;111181;-77
2021/11/14 02:34:04;;;;;;;143.90;56.90;;;;;;;4.47;61.16;99322.92;102954;1319;97990;-76
2021/11/14 02:36:34;;;;;;;157.60;60.90;;;;;;;4.48;61.06;99323.21;103017;1323;108356;-75
2021/11/14 02:39:05;;;;;;;139.80;57.20;;;;;;;4.50;61.25;99327.88;102906;1319;97996;-74
2021/11/14 02:41:35;;;;;;;155.00;62.30;;;;;;;4.51;61.27;99330.13;103016;1319;97887;-75
2021/11/14 02:44:04;;;;;;;155.70;60.00;;;;;;;4.51;61.24;99330.81;102909;1316;124993;-74
2021/11/14 02:46:34;;;;;;;154.00;61.60;;;;;;;4.53;61.47;99333.75;102956;1319;97902;-75
2021/11/14 02:49:03;;;;;;;141.20;59.00;;;;;;;4.53;61.33;99333.75;102934;1319;108605;-75
2021/11/14 02:51:34;;;;;;;159.80;62.80;;;;;;;4.49;61.14;99336.50;102992;1319;96642;-76
2021/11/14 02:54:04;;;;;;;146.30;60.30;;;;;;;4.47;61.34;99338.38;103027;1319;98107;-76
2021/11/14 02:56:35;;;;;;;147.60;57.70;;;;;;;4.46;61.31;99336.66;103036;1318;111503;-76
2021/11/14 02:59:03;;;;;;;148.30;58.10;;;;;;;4.48;61.50;99337.47;102967;1322;97986;-75
2021/11/14 03:01:48;;;;;;;156.30;63.20;;;;;;;4.50;61.59;99338.94;103025;1319;108137;-75
2021/11/14 03:04:23;;;;;;;149.70;61.20;;;;;;;4.48;61.47;99330.95;102960;1320;97044;-75
2021/11/14 03:06:55;;;;;;;147.50;58.30;;;;;;;4.47;61.86;99336.77;103015;1319;98005;-74
2021/11/14 03:09:24;;;;;;;147.50;58.10;;;;;;;4.49;61.95;99335.32;103049;1319;111527;-74
2021/11/14 03:11:57;;;;;;;156.30;62.40;;;;;;;4.51;61.85;99334.88;103037;1319;98037;-74
2021/11/14 03:14:27;;;;;;;146.60;57.70;;;;;;;4.53;61.81;99338.65;102797;1321;105527;-74
2021/11/14 03:16:55;;;;;;;153.80;59.40;;;;;;;4.55;62.04;99339.60;102947;1319;98188;-74
2021/11/14 03:19:23;;;;;;;148.10;59.50;;;;;;;4.57;61.79;99344.63;102969;1319;97872;-74
2021/11/14 03:21:51;;;;;;;148.40;58.50;;;;;;;4.56;62.16;99343.80;102972;1319;111502;-74
2021/11/14 03:24:19;;;;;;;160.70;61.50;;;;;;;4.58;62.01;99341.60;103111;1319;97863;-75
2021/11/14 03:26:47;;;;;;;151.90;61.00;;;;;;;4.59;62.05;99346.27;102979;1319;107945;-75
2021/11/14 03:29:15;;;;;;;152.80;64.80;;;;;;;4.58;62.15;99344.73;103012;1319;98008;-75
2021/11/14 03:31:43;;;;;;;153.00;61.10;;;;;;;4.58;61.80;99348.08;102997;1318;97895;-76
2021/11/14 03:34:11;;;;;;;146.90;60.60;;;;;;;4.56;62.13;99352.02;102989;1318;111237;-76
2021/11/14 03:36:39;;;;;;;159.40;64.90;;;;;;;4.56;62.07;99350.79;102872;1325;97837;-79
2021/11/14 03:39:08;;;;;;;152.60;61.50;;;;;;;4.56;62.02;99353.96;102976;1318;107872;-76
2021/11/14 03:41:42;;;;;;;144.90;59.30;;;;;;;4.52;62.28;99352.23;103027;1322;99011;-76
2021/11/14 03:44:14;;;;;;;143.50;59.70;;;;;;;4.51;62.06;99354.70;103123;1322;98009;-79
2021/11/14 03:46:41;;;;;;;144.40;58.20;;;;;;;4.50;62.23;99350.00;103102;1319;111524;-78
2021/11/14 03:49:09;;;;;;;159.30;57.70;;;;;;;4.50;62.28;99354.21;102885;1322;98062;-74
2021/11/14 03:51:37;;;;;;;154.60;61.20;;;;;;;4.49;62.26;99352.86;103102;1322;107773;-76
2021/11/14 03:54:05;;;;;;;150.00;58.30;;;;;;;4.47;62.31;99355.23;103102;1319;98014;-76
2021/11/14 03:56:35;;;;;;;147.50;59.30;;;;;;;4.46;62.47;99359.27;103128;1319;97965;-74
2021/11/14 03:59:04;;;;;;;142.10;57.00;;;;;;;4.46;62.42;99360.36;103025;1326;109702;-75
2021/11/14 04:01:32;;;;;;;148.30;59.60;;;;;;;4.46;62.55;99358.95;103021;1319;98419;-74
2021/11/14 04:04:03;;;;;;;158.40;59.40;;;;;;;4.46;62.73;99358.59;103018;1319;107728;-74
2021/11/14 04:06:34;;;;;;;158.90;59.50;;;;;;;4.47;62.49;99361.55;103028;1319;95367;-74
2021/11/14 04:09:07;;;;;;;159.20;60.00;;;;;;;4.46;62.83;99360.20;102980;1319;98370;-75
2021/11/14 04:11:34;;;;;;;153.90;59.80;;;;;;;4.48;62.73;99362.89;103049;1319;111638;-75
2021/11/14 04:14:02;;;;;;;142.50;56.90;;;;;;;4.49;62.64;99367.27;102830;1318;97743;-75
2021/11/14 04:16:30;;;;;;;149.60;57.50;;;;;;;4.47;62.94;99366.83;103010;1322;107668;-75
2021/11/14 04:18:58;;;;;;;150.60;59.20;;;;;;;4.48;62.93;99367.31;102836;1322;98208;-76
2021/11/14 04:21:26;;;;;;;154.10;58.00;;;;;;;4.50;63.02;99366.00;103039;1319;96450;-75
2021/11/14 04:23:55;;;;;;;151.20;58.70;;;;;;;4.52;63.20;99366.77;102984;1318;112457;-75
2021/11/14 04:26:23;;;;;;;137.00;57.60;;;;;;;4.55;63.05;99370.18;102991;1326;98944;-74
2021/11/14 04:28:54;;;;;;;152.10;55.80;;;;;;;4.54;63.14;99368.27;103049;1323;108534;-74
2021/11/14 04:31:22;;;;;;;156.00;55.80;;;;;;;4.56;63.02;99372.60;103093;1319;97968;-74
2021/11/14 04:33:52;;;;;;;148.80;57.50;;;;;;;4.57;63.10;99374.63;102831;1318;97849;-74
2021/11/14 04:36:20;;;;;;;141.00;57.50;;;;;;;4.57;63.13;99373.77;103046;1319;111502;-73
2021/11/14 04:38:48;;;;;;;151.70;57.90;;;;;;;4.55;63.19;99375.77;103127;1319;97908;-74
2021/11/14 04:41:18;;;;;;;144.10;57.40;;;;;;;4.55;63.05;99378.08;103057;1322;105584;-72
2021/11/14 04:43:46;;;;;;;145.00;57.00;;;;;;;4.55;63.34;99381.39;103102;1319;98010;-74
2021/11/14 04:46:14;;;;;;;148.50;55.50;;;;;;;4.55;63.34;99380.17;103119;1319;99096;-73
2021/11/14 04:48:42;;;;;;;145.50;56.30;;;;;;;4.56;63.26;99385.05;103070;1323;111533;-73
2021/11/14 04:51:10;;;;;;;143.80;55.50;;;;;;;4.55;63.46;99385.98;102838;1325;97977;-74
2021/11/14 04:53:38;;;;;;;142.30;54.20;;;;;;;4.57;63.49;99386.75;103105;1319;107941;-74
2021/11/14 04:56:08;;;;;;;148.20;56.70;;;;;;;4.59;63.53;99392.29;103066;1320;97973;-73
2021/11/14 04:58:36;;;;;;;138.70;54.70;;;;;;;4.60;63.69;99399.62;103130;1319;95270;-75
2021/11/14 05:01:04;;;;;;;133.10;53.00;;;;;;;4.62;63.60;99397.78;103086;1318;110705;-74
2021/11/14 05:03:38;;;;;;;135.20;54.50;;;;;;;4.65;63.70;99398.74;103041;1319;97962;-74
2021/11/14 05:06:09;;;;;;;145.20;55.80;;;;;;;4.67;63.73;99399.36;102825;1325;107909;-72
2021/11/14 05:08:37;;;;;;;139.90;56.70;;;;;;;4.68;63.82;99401.39;103064;1319;97890;-75
2021/11/14 05:11:05;;;;;;;137.30;53.40;;;;;;;4.69;63.65;99405.04;103016;1319;97920;-75
2021/11/14 05:13:35;;;;;;;140.10;54.50;;;;;;;4.71;63.85;99407.26;103003;1319;111246;-75
2021/11/14 05:16:06;;;;;;;147.90;55.00;;;;;;;4.72;63.76;99407.56;102997;1323;97882;-75
2021/11/14 05:18:35;;;;;;;146.50;55.80;;;;;;;4.70;63.73;99413.62;102958;1322;107461;-74
2021/11/14 05:21:09;;;;;;;144.20;55.00;;;;;;;4.70;63.79;99415.70;103011;1318;99689;-74
2021/11/14 05:23:40;;;;;;;141.00;55.90;;;;;;;4.72;63.92;99414.39;103101;1326;97973;-73
2021/11/14 05:26:08;;;;;;;141.50;55.70;;;;;;;4.73;64.04;99417.69;103025;1319;110552;-74
2021/11/14 05:28:35;;;;;;;141.60;54.60;;;;;;;4.76;64.08;99419.68;103027;1319;97899;-74
2021/11/14 05:31:03;;;;;;;136.80;55.90;;;;;;;4.78;64.06;99418.36;102976;1319;108328;-75
2021/11/14 05:33:31;;;;;;;136.10;54.80;;;;;;;4.81;64.11;99420.02;103012;1318;96336;-76
2021/11/14 05:35:59;;;;;;;141.60;55.90;;;;;;;4.84;64.16;99423.59;103038;1319;95237;-75
2021/11/14 05:38:30;;;;;;;138.70;52.50;;;;;;;4.85;64.08;99429.34;103003;1322;111410;-75
2021/11/14 05:40:57;;;;;;;135.70;54.30;;;;;;;4.84;64.11;99434.81;103004;1321;97882;-76
2021/11/14 05:43:25;;;;;;;140.90;56.50;;;;;;;4.84;64.11;99437.11;103001;1318;107974;-75
2021/11/14 05:45:53;;;;;;;132.00;51.30;;;;;;;4.82;64.06;99439.64;103021;1319;98078;-75
2021/11/14 05:48:21;;;;;;;140.70;53.60;;;;;;;4.81;64.22;99440.58;102988;1319;97999;-75
2021/11/14 05:50:49;;;;;;;132.50;53.40;;;;;;;4.82;64.26;99438.95;103011;1319;111333;-77
2021/11/14 05:53:17;;;;;;;147.80;56.10;;;;;;;4.82;64.15;99443.88;103103;1320;97924;-78
2021/11/14 05:55:48;;;;;;;139.90;52.50;;;;;;;4.80;64.29;99445.17;102989;1323;108027;-76
2021/11/14 05:58:20;;;;;;;140.80;54.60;;;;;;;4.79;64.19;99445.55;103097;1319;98039;-76
2021/11/14 06:03:32;;;;;;;147.30;54.90;;;;;;;4.74;64.31;99451.57;103091;1319;111113;-78
2021/11/14 06:06:03;;;;;;;138.50;54.90;;;;;;;4.74;64.58;99452.27;103095;1319;98001;-77
2021/11/14 06:08:37;;;;;;;135.90;54.40;;;;;;;4.77;64.60;99459.71;102937;1319;107855;-77
2021/11/14 06:11:05;;;;;;;132.80;53.60;;;;;;;4.80;64.51;99460.63;102883;1319;97970;-77
2021/11/14 06:13:32;;;;;;;145.10;53.20;;;;;;;4.83;64.59;99464.54;102877;1322;96429;-77
2021/11/14 06:16:00;;;;;;;141.10;53.00;;;;;;;4.87;64.63;99470.52;102868;1319;111204;-76
2021/11/14 06:18:28;;;;;;;143.90;54.90;;;;;;;4.91;64.76;99472.10;102971;1319;95416;-79
2021/11/14 06:21:00;;;;;;;136.30;54.90;;;;;;;4.96;64.66;99475.60;102971;1318;107609;-75
2021/11/14 06:23:28;;;;;;;134.40;53.10;;;;;;;4.98;64.70;99477.79;103028;1319;98014;-75
2021/11/14 06:25:56;;;;;;;136.00;53.10;;;;;;;4.97;64.67;99477.83;103095;1322;98091;-75
2021/11/14 06:28:29;;;;;;;139.20;53.90;;;;;;;4.98;64.74;99480.79;103064;1320;111972;-74
2021/11/14 06:31:00;;;;;;;147.60;54.40;;;;;;;4.98;64.72;99482.01;102911;1322;95880;-75
2021/11/14 06:33:28;;;;;;;136.80;52.30;;;;;;;5.01;64.84;99487.70;103145;1319;107666;-74
2021/11/14 06:35:56;;;;;;;121.70;50.50;;;;;;;5.04;64.89;99489.50;103104;1319;97895;-74
2021/11/14 06:38:26;;;;;;;128.30;51.80;;;;;;;5.05;64.88;99488.38;103108;1319;97872;-74
2021/11/14 06:40:57;;;;;;;124.90;52.80;;;;;;;5.09;64.88;99488.09;103026;1324;110404;-74
2021/11/14 06:43:28;;;;;;;122.40;49.30;;;;;;;5.12;64.97;99487.91;102978;1319;98016;-73
2021/11/14 06:45:59;;;;;;;127.30;50.60;;;;;;;5.12;64.96;99491.77;103076;1322;107491;-74
2021/11/14 06:48:27;;;;;;;119.00;49.40;;;;;;;5.13;64.89;99490.33;102915;1318;98680;-74
2021/11/14 06:50:54;;;;;;;115.60;48.80;;;;;;;5.15;65.00;99492.55;103071;1319;97882;-75
2021/11/14 06:53:25;;;;;;;124.10;49.20;;;;;;;5.16;64.89;99495.84;103046;1319;110657;-77
2021/11/14 06:55:53;;;;;;;125.80;48.90;;;;;;;5.17;65.01;99497.73;103030;1322;97885;-74
2021/11/14 06:58:24;;;;;;;118.40;48.30;;;;;;;5.19;65.04;99502.92;102829;1322;107866;-73
2021/11/14 07:00:52;;;;;;;126.90;49.50;;;;;;;5.19;64.95;99505.90;102942;1319;97870;-73
2021/11/14 07:03:23;;;;;;;109.60;46.30;;;;;;;5.20;65.00;99512.02;102758;1321;97984;-74
2021/11/14 07:05:51;;;;;;;112.30;49.70;;;;;;;5.23;65.21;99512.77;102939;1323;110288;-73
2021/11/14 07:08:19;;;;;;;109.80;47.50;;;;;;;5.26;65.20;99513.36;103063;1318;97929;-75
2021/11/14 07:10:47;;;;;;;119.40;48.50;;;;;;;5.29;65.17;99514.77;102969;1319;107743;-73
2021/11/14 07:13:17;;;;;;;112.80;47.20;;;;;;;5.33;65.19;99520.77;102955;1319;97794;-73
2021/11/14 07:15:45;;;;;;;115.50;48.60;;;;;;;5.36;65.25;99523.64;102997;1319;97976;-74
2021/11/14 07:18:13;;;;;;;115.20;46.20;;;;;;;5.38;65.28;99521.96;102947;1319;110434;-75
2021/11/14 07:20:45;;;;;;;121.80;50.90;;;;;;;5.37;65.15;99522.36;102989;1319;97056;-74
2021/11/14 07:23:16;;;;;;;116.30;47.20;;;;;;;5.38;65.27;99527.79;102979;1322;107901;-72
2021/11/14 07:25:44;;;;;;;116.80;47.90;;;;;;;5.38;65.18;99528.98;102933;1318;97866;-72
2021/11/14 07:28:13;;;;;;;110.90;46.40;;;;;;;5.39;65.25;99531.62;102988;1319;96946;-73
2021/11/14 07:30:42;;;;;;;118.00;50.60;;;;;;;5.38;65.29;99535.70;102929;1318;111734;-75
2021/11/14 07:33:17;;;;;;;115.00;48.50;;;;;;;5.40;65.42;99539.10;103017;1319;97959;-75
2021/11/14 07:35:45;;;;;;;113.40;48.40;;;;;;;5.41;65.43;99540.10;103038;1319;108525;-73
2021/11/14 07:38:13;;;;;;;121.70;48.10;;;;;;;5.45;65.52;99542.22;102999;1325;96487;-75
2021/11/14 07:40:41;;;;;;;136.90;56.90;;;;;;;5.50;65.40;99540.45;103051;1321;98034;-75
2021/11/14 07:43:09;;;;;;;137.90;55.00;;;;;;;5.54;65.55;99537.80;103005;1318;113312;-74
2021/11/14 07:45:36;;;;;;;132.60;52.50;;;;;;;5.56;65.56;99541.41;103042;1319;98664;-74
2021/11/14 07:48:07;;;;;;;125.40;52.60;;;;;;;5.58;65.43;99543.44;102970;1319;107937;-75
2021/11/14 07:50:40;;;;;;;115.50;47.00;;;;;;;5.60;65.56;99545.42;102994;1322;97848;-72
2021/11/14 07:53:10;;;;;;;114.00;46.90;;;;;;;5.61;65.53;99550.16;103020;1322;97762;-72
2021/11/14 07:55:40;;;;;;;120.10;49.00;;;;;;;5.60;65.59;99549.98;103006;1322;112108;-72
2021/11/14 07:58:10;;;;;;;108.10;47.20;;;;;;;5.62;65.68;99554.16;103026;1319;97959;-73
2021/11/14 08:00:41;;;;;;;112.90;47.20;;;;;;;5.65;65.64;99552.80;102977;1319;107995;-71
2021/11/14 08:03:11;;;;;;;114.00;47.20;;;;;;;5.67;65.83;99556.40;102986;1318;95279;-72
2021/11/14 08:05:42;;;;;;;107.10;48.40;;;;;;;5.71;65.72;99559.42;103128;1320;98011;-72
2021/11/14 08:08:13;;;;;;;99.00;44.40;;;;;;;5.74;65.74;99558.57;103087;1319;112410;-72
2021/11/14 08:10:43;;;;;;;109.60;45.90;;;;;;;5.75;65.81;99558.84;103005;1319;97994;-72
2021/11/14 08:13:11;;;;;;;107.80;46.70;;;;;;;5.79;65.83;99557.96;102993;1318;107911;-71
2021/11/14 08:15:39;;;;;;;102.30;44.30;;;;;;;5.83;65.88;99560.82;103010;1320;97075;-70
2021/11/14 08:18:11;;;;;;;101.80;47.40;;;;;;;5.87;65.80;99561.88;103069;1325;97925;-70
2021/11/14 08:20:39;;;;;;;98.30;42.30;;;;;;;5.92;65.88;99568.48;102992;1321;111589;-71
2021/11/14 08:23:08;;;;;;;106.10;45.50;;;;;;;5.95;65.69;99570.45;103013;1318;95257;-71
2021/11/14 08:25:38;;;;;;;110.00;47.30;;;;;;;5.98;65.74;99572.44;102970;1322;107834;-71
2021/11/14 08:28:09;;;;;;;96.50;43.30;;;;;;;6.04;65.80;99578.39;102979;1323;95334;-71
2021/11/14 08:30:41;;;;;;;95.30;43.10;;;;;;;6.05;65.76;99578.66;102994;1322;98155;-70
2021/11/14 08:33:30;;;;;;;92.70;42.30;;;;;;;6.10;65.91;99581.60;102972;1324;111556;-71
2021/11/14 08:36:00;;;;;;;95.20;44.20;;;;;;;6.16;65.77;99582.05;102935;1319;97900;-72
2021/11/14 08:38:29;;;;;;;98.40;43.80;;;;;;;6.19;65.80;99581.36;102971;1319;107872;-72
2021/11/14 08:40:57;;;;;;;96.30;43.10;;;;;;;6.24;65.82;99574.79;102974;1319;98104;-71
2021/11/14 08:43:26;;;;;;;90.40;40.30;;;;;;;6.31;65.92;99579.94;102964;1319;96645;-74
2021/11/14 08:45:54;;;;;;;90.50;43.40;;;;;;;6.38;66.07;99579.27;102937;1319;111477;-74
2021/11/14 08:48:26;;;;;;;95.10;43.90;;;;;;;6.45;65.93;99577.52;102778;1322;95795;-71
2021/11/14 08:50:58;;;;;;;89.60;41.90;;;;;;;6.51;65.69;99576.57;102939;1319;107723;-72
2021/11/14 08:53:27;;;;;;;91.90;42.50;;;;;;;6.57;65.94;99579.97;102943;1318;98458;-74
2021/11/14 08:56:01;;;;;;;88.90;41.90;;;;;;;6.60;66.12;99580.70;102925;1318;98026;-72
2021/11/14 08:58:35;;;;;;;91.20;42.70;;;;;;;6.67;65.89;99583.01;102987;1318;111540;-72
2021/11/14 09:01:10;;;;;;;88.60;42.20;;;;;;;6.74;66.02;99585.16;102882;1318;98711;-73
2021/11/14 09:03:43;;;;;;;92.30;42.20;;;;;;;6.78;65.86;99589.18;102921;1318;107883;-73
2021/11/14 09:06:10;;;;;;;67.50;33.00;;;;;;;6.82;65.81;99592.33;102843;1318;95335;-74
2021/11/14 09:08:43;;;;;;;95.60;47.70;;;;;;;6.87;65.76;99599.34;102876;1319;97858;-73
2021/11/14 09:11:11;;;;;;;109.70;52.90;;;;;;;6.97;66.00;99598.15;102873;1318;111534;-74
2021/11/14 09:13:42;;;;;;;97.50;46.50;;;;;;;7.08;65.96;99596.89;102879;1320;98492;-72
2021/11/14 09:16:10;;;;;;;90.10;41.80;;;;;;;7.26;65.98;99597.42;102866;1318;107845;-72
2021/11/14 09:18:43;;;;;;;89.40;43.60;;;;;;;7.45;65.95;99599.95;102971;1318;97999;-73
2021/11/14 09:21:13;;;;;;;89.30;41.20;;;;;;;7.66;66.01;99597.50;102960;1318;95283;-73
2021/11/14 09:23:53;;;;;;;86.30;41.70;;;;;;;7.90;65.96;99598.16;102863;1318;111570;-72
2021/11/14 09:26:21;;;;;;;84.90;41.30;;;;;;;8.14;66.03;99597.44;102901;1319;95886;-72
2021/11/14 09:28:48;;;;;;;86.40;42.80;;;;;;;8.25;65.71;99597.55;102907;1319;107938;-71
2021/11/14 09:31:17;;;;;;;83.50;42.10;;;;;;;8.35;65.85;99597.01;102898;1318;97938;-71
2021/11/14 09:33:48;;;;;;;83.30;41.80;;;;;;;8.47;65.78;99588.42;102904;1319;95299;-71
2021/11/14 09:36:21;;;;;;;84.60;41.70;;;;;;;8.61;65.88;99589.22;103109;1316;112622;-72
2021/11/14 09:38:54;;;;;;;86.80;40.90;;;;;;;8.77;65.84;99590.85;103044;1319;98699;-71
2021/11/14 09:41:24;;;;;;;87.00;43.30;;;;;;;8.92;65.87;99589.27;103123;1319;107812;-71
2021/11/14 09:43:53;;;;;;;83.10;41.10;;;;;;;9.00;65.72;99586.52;103089;1323;98001;-72
2021/11/14 09:46:50;;;;;;;87.40;43.00;;;;;;;9.00;65.60;99586.16;102986;1318;95260;-72
2021/11/14 09:49:21;;;;;;;79.40;40.00;;;;;;;9.06;65.81;99584.05;102812;1322;111356;-70
2021/11/14 09:51:51;;;;;;;83.10;41.60;;;;;;;9.14;65.84;99583.76;102829;1319;97084;-70
2021/11/14 09:54:22;;;;;;;85.50;43.10;;;;;;;9.21;65.72;99585.12;102846;1319;107902;-71
2021/11/14 09:56:53;;;;;;;78.50;40.30;;;;;;;9.17;65.64;99585.50;102757;1318;97940;-71
2021/11/14 09:59:22;;;;;;;80.20;40.10;;;;;;;9.16;65.70;99579.91;102734;1318;98343;-70
2021/11/14 10:01:52;;;;;;;79.50;41.80;;;;;;;9.24;65.72;99583.02;102649;1319;111571;-70
2021/11/14 10:04:22;;;;;;;76.70;39.90;;;;;;;9.33;65.75;99581.24;102759;1318;97580;-69
2021/11/14 10:07:06;;;;;;;84.20;44.50;;;;;;;9.46;66.01;99580.48;102842;1319;107850;-70
2021/11/14 10:09:45;;;;;;;84.50;42.20;;;;;;;9.66;65.85;99576.63;102897;1319;97893;-70
2021/11/14 10:12:23;;;;;;;82.20;41.30;;;;;;;9.79;65.76;99579.88;103076;1322;97883;-70
2021/11/14 10:15:07;;;;;;;78.10;39.20;;;;;;;9.87;65.68;99576.62;102965;1318;111521;-71
2021/11/14 10:17:38;;;;;;;77.70;40.40;;;;;;;9.96;65.85;99578.67;102798;1320;97756;-70
2021/11/14 10:20:16;;;;;;;77.60;40.50;;;;;;;10.05;65.64;99582.24;102924;1318;105647;-70
2021/11/14 10:22:50;;;;;;;77.60;38.60;;;;;;;10.10;65.69;99577.84;103015;1319;97973;-70
2021/11/14 10:25:24;;;;;;;67.90;36.60;;;;;;;10.16;65.64;99579.95;102944;1319;97965;-70
2021/11/14 10:27:56;;;;;;;75.60;39.20;;;;;;;10.15;65.51;99576.84;102992;1319;111268;-70
2021/11/14 10:30:27;;;;;;;72.20;36.50;;;;;;;10.13;65.53;99578.38;103001;1322;97949;-71
2021/11/14 10:33:00;;;;;;;65.00;34.60;;;;;;;10.23;65.56;99573.48;102978;1319;108956;-71
2021/11/14 10:35:28;;;;;;;68.30;36.70;;;;;;;10.21;65.47;99577.83;103009;1319;97895;-73
2021/11/14 10:38:01;;;;;;;69.20;36.10;;;;;;;10.09;65.31;99581.27;102925;1319;97959;-69
2021/11/14 10:40:33;;;;;;;67.40;36.10;;;;;;;10.05;65.57;99576.00;102968;1325;112059;-69
2021/11/14 10:43:03;;;;;;;66.20;35.60;;;;;;;10.09;65.50;99580.94;102900;1320;142192;-73
2021/11/14 10:45:37;;;;;;;65.80;36.30;;;;;;;10.08;65.51;99581.45;102951;1325;108652;-69
2021/11/14 10:48:16;;;;;;;71.50;38.80;;;;;;;10.10;65.51;99581.38;102967;1320;95197;-71
2021/11/14 10:50:52;;;;;;;68.80;36.70;;;;;;;10.07;65.43;99579.07;103037;1319;98003;-71
2021/11/14 10:53:22;;;;;;;;;;;;;;;10.07;65.50;99583.86;103016;1318;111457;-72
2021/11/14 10:56:07;;;;;;;67.90;36.70;;;;;;;9.97;65.30;99585.39;102936;1319;97888;-71
2021/11/14 10:58:37;;;;;;;70.30;37.00;;;;;;;9.93;65.28;99587.72;102868;1319;107853;-75
2021/11/14 11:01:11;;;;;;;69.80;37.00;;;;;;;9.92;65.33;99586.91;102911;1319;97972;-72
2021/11/14 11:03:45;;;;;;;67.40;34.90;;;;;;;9.93;65.35;99588.44;102810;1319;97938;-72
2021/11/14 11:06:23;;;;;;;71.50;36.90;;;;;;;9.93;65.26;99582.60;102702;1319;111847;-73
2021/11/14 11:08:52;;;;;;;66.70;35.90;;;;;;;9.92;65.32;99581.42;102814;1319;96303;-71
2021/11/14 11:11:43;;;;;;;68.80;34.30;;;;;;;9.82;65.10;99583.64;102842;1323;107936;-72
2021/11/14 11:14:12;;;;;;;66.20;35.50;;;;;;;9.78;65.10;99583.84;102700;1325;98027;-73
2021/11/14 11:16:40;;;;;;;69.20;36.00;;;;;;;9.78;65.12;99580.50;102908;1319;97975;-73
2021/11/14 11:19:14;;;;;;;66.30;34.70;;;;;;;9.77;65.14;99578.58;102997;1319;111563;-70
2021/11/14 11:21:48;;;;;;;60.20;32.30;;;;;;;9.78;65.09;99575.75;102875;1318;98214;-70
2021/11/14 11:24:22;;;;;;;67.30;35.10;;;;;;;9.74;64.90;99577.74;102769;1318;106139;-71
2021/11/14 11:27:05;;;;;;;66.70;35.30;;;;;;;9.71;65.00;99578.83;102794;1318;97902;-68